sensor_id;sensor_type;location;lat;lon;timestamp;temperature;humidity
431;DHT22;202;48.764;9.172;2023-06-22T00:02:27;24.10;54.30
431;DHT22;202;48.764;9.172;2023-06-22T00:04:54;24.10;53.90
431;DHT22;202;48.764;9.172;2023-06-22T00:07:26;24.00;54.50
431;DHT22;202;48.764;9.172;2023-06-22T00:09:56;24.10;54.10
431;DHT22;202;48.764;9.172;2023-06-22T00:27:56;24.10;55.90
431;DHT22;202;48.764;9.172;2023-06-22T00:30:23;24.20;54.50
431;DHT22;202;48.764;9.172;2023-06-22T00:32:50;24.20;55.20
431;DHT22;202;48.764;9.172;2023-06-22T00:35:20;24.20;55.40
431;DHT22;202;48.764;9.172;2023-06-22T00:37:47;24.10;55.40
431;DHT22;202;48.764;9.172;2023-06-22T00:40:14;24.10;55.10
431;DHT22;202;48.764;9.172;2023-06-22T01:13:54;23.70;55.90
431;DHT22;202;48.764;9.172;2023-06-22T01:16:25;23.60;56.80
431;DHT22;202;48.764;9.172;2023-06-22T01:18:55;23.50;56.80
431;DHT22;202;48.764;9.172;2023-06-22T01:21:25;23.40;57.50
431;DHT22;202;48.764;9.172;2023-06-22T01:24:20;23.40;58.20
431;DHT22;202;48.764;9.172;2023-06-22T01:44:58;23.00;60.20
431;DHT22;202;48.764;9.172;2023-06-22T01:47:26;23.00;61.40
431;DHT22;202;48.764;9.172;2023-06-22T01:49:53;22.90;61.50
431;DHT22;202;48.764;9.172;2023-06-22T01:52:20;22.90;62.30
431;DHT22;202;48.764;9.172;2023-06-22T01:54:47;22.90;62.90
431;DHT22;202;48.764;9.172;2023-06-22T01:57:23;23.00;63.00
431;DHT22;202;48.764;9.172;2023-06-22T01:59:57;23.00;62.50
431;DHT22;202;48.764;9.172;2023-06-22T02:02:38;23.00;62.70
431;DHT22;202;48.764;9.172;2023-06-22T02:05:22;23.10;62.40
431;DHT22;202;48.764;9.172;2023-06-22T02:08:05;23.10;62.30
431;DHT22;202;48.764;9.172;2023-06-22T02:10:40;23.10;61.90
431;DHT22;202;48.764;9.172;2023-06-22T02:13:09;23.00;62.60
431;DHT22;202;48.764;9.172;2023-06-22T02:15:38;23.10;63.00
431;DHT22;202;48.764;9.172;2023-06-22T02:18:22;23.20;61.60
431;DHT22;202;48.764;9.172;2023-06-22T02:21:05;23.30;60.40
431;DHT22;202;48.764;9.172;2023-06-22T02:23:32;23.20;60.60
431;DHT22;202;48.764;9.172;2023-06-22T02:26:03;23.10;62.50
431;DHT22;202;48.764;9.172;2023-06-22T02:28:30;22.80;64.30
431;DHT22;202;48.764;9.172;2023-06-22T02:30:57;22.90;64.20
431;DHT22;202;48.764;9.172;2023-06-22T02:33:33;22.80;64.10
431;DHT22;202;48.764;9.172;2023-06-22T02:52:53;22.60;66.30
431;DHT22;202;48.764;9.172;2023-06-22T02:55:43;22.60;67.50
431;DHT22;202;48.764;9.172;2023-06-22T02:58:29;22.60;66.20
431;DHT22;202;48.764;9.172;2023-06-22T03:04:22;22.60;66.00
431;DHT22;202;48.764;9.172;2023-06-22T03:06:49;22.60;66.60
431;DHT22;202;48.764;9.172;2023-06-22T03:09:17;22.70;65.80
431;DHT22;202;48.764;9.172;2023-06-22T03:11:44;22.70;64.90
431;DHT22;202;48.764;9.172;2023-06-22T03:14:11;22.70;64.90
431;DHT22;202;48.764;9.172;2023-06-22T03:16:38;22.60;64.80
431;DHT22;202;48.764;9.172;2023-06-22T03:19:06;22.50;65.60
431;DHT22;202;48.764;9.172;2023-06-22T03:21:32;22.50;66.30
431;DHT22;202;48.764;9.172;2023-06-22T03:24:04;22.50;65.70
431;DHT22;202;48.764;9.172;2023-06-22T03:26:32;22.50;65.50
431;DHT22;202;48.764;9.172;2023-06-22T03:28:59;22.50;64.70
431;DHT22;202;48.764;9.172;2023-06-22T03:31:26;22.50;64.70
431;DHT22;202;48.764;9.172;2023-06-22T03:33:53;22.40;65.20
431;DHT22;202;48.764;9.172;2023-06-22T03:36:21;22.40;67.00
431;DHT22;202;48.764;9.172;2023-06-22T03:38:49;22.30;68.50
431;DHT22;202;48.764;9.172;2023-06-22T03:41:17;22.30;67.50
431;DHT22;202;48.764;9.172;2023-06-22T03:43:45;22.30;67.50
431;DHT22;202;48.764;9.172;2023-06-22T03:46:11;22.20;68.10
431;DHT22;202;48.764;9.172;2023-06-22T03:48:38;22.20;68.90
431;DHT22;202;48.764;9.172;2023-06-22T03:51:05;22.20;68.70
431;DHT22;202;48.764;9.172;2023-06-22T03:53:32;22.30;68.00
431;DHT22;202;48.764;9.172;2023-06-22T03:55:59;22.30;67.40
431;DHT22;202;48.764;9.172;2023-06-22T03:58:25;22.30;67.80
431;DHT22;202;48.764;9.172;2023-06-22T04:00:59;22.40;67.30
431;DHT22;202;48.764;9.172;2023-06-22T04:03:26;22.50;67.10
431;DHT22;202;48.764;9.172;2023-06-22T04:05:53;22.50;66.60
431;DHT22;202;48.764;9.172;2023-06-22T04:08:20;22.50;66.60
431;DHT22;202;48.764;9.172;2023-06-22T04:10:47;22.50;66.40
431;DHT22;202;48.764;9.172;2023-06-22T04:13:14;22.40;66.90
431;DHT22;202;48.764;9.172;2023-06-22T04:15:41;22.40;66.30
431;DHT22;202;48.764;9.172;2023-06-22T04:18:10;22.40;65.30
431;DHT22;202;48.764;9.172;2023-06-22T04:20:36;22.50;66.60
431;DHT22;202;48.764;9.172;2023-06-22T04:23:03;22.50;65.80
431;DHT22;202;48.764;9.172;2023-06-22T04:25:30;22.50;66.90
431;DHT22;202;48.764;9.172;2023-06-22T04:27:57;22.50;65.90
431;DHT22;202;48.764;9.172;2023-06-22T04:30:28;22.60;66.20
431;DHT22;202;48.764;9.172;2023-06-22T04:32:57;22.60;65.90
431;DHT22;202;48.764;9.172;2023-06-22T04:35:25;22.60;64.80
431;DHT22;202;48.764;9.172;2023-06-22T04:37:55;22.70;63.90
431;DHT22;202;48.764;9.172;2023-06-22T04:40:22;22.70;64.00
431;DHT22;202;48.764;9.172;2023-06-22T04:42:49;22.70;65.40
431;DHT22;202;48.764;9.172;2023-06-22T04:45:19;22.60;66.10
431;DHT22;202;48.764;9.172;2023-06-22T04:47:47;22.50;65.00
431;DHT22;202;48.764;9.172;2023-06-22T04:50:14;22.50;65.50
431;DHT22;202;48.764;9.172;2023-06-22T04:52:44;22.50;66.70
431;DHT22;202;48.764;9.172;2023-06-22T04:55:11;22.50;64.70
431;DHT22;202;48.764;9.172;2023-06-22T04:57:37;22.50;66.00
431;DHT22;202;48.764;9.172;2023-06-22T05:00:06;22.50;66.70
431;DHT22;202;48.764;9.172;2023-06-22T05:02:43;22.60;66.60
431;DHT22;202;48.764;9.172;2023-06-22T05:05:09;22.60;66.00
431;DHT22;202;48.764;9.172;2023-06-22T05:07:39;22.70;65.40
431;DHT22;202;48.764;9.172;2023-06-22T05:10:10;22.80;66.20
431;DHT22;202;48.764;9.172;2023-06-22T05:12:39;22.80;65.00
431;DHT22;202;48.764;9.172;2023-06-22T05:15:07;22.90;65.10
431;DHT22;202;48.764;9.172;2023-06-22T05:17:34;23.00;65.20
431;DHT22;202;48.764;9.172;2023-06-22T05:20:01;23.00;61.80
431;DHT22;202;48.764;9.172;2023-06-22T05:22:30;23.10;60.60
431;DHT22;202;48.764;9.172;2023-06-22T05:24:57;23.10;60.20
431;DHT22;202;48.764;9.172;2023-06-22T05:27:25;23.10;61.50
431;DHT22;202;48.764;9.172;2023-06-22T05:29:52;23.20;62.00
431;DHT22;202;48.764;9.172;2023-06-22T05:32:19;23.20;60.30
431;DHT22;202;48.764;9.172;2023-06-22T05:34:46;23.20;59.80
431;DHT22;202;48.764;9.172;2023-06-22T05:37:13;23.40;60.00
431;DHT22;202;48.764;9.172;2023-06-22T05:39:40;23.40;60.50
431;DHT22;202;48.764;9.172;2023-06-22T05:42:07;23.60;59.50
431;DHT22;202;48.764;9.172;2023-06-22T05:44:35;23.70;58.90
431;DHT22;202;48.764;9.172;2023-06-22T05:47:03;23.80;57.80
431;DHT22;202;48.764;9.172;2023-06-22T05:49:30;23.80;56.00
431;DHT22;202;48.764;9.172;2023-06-22T05:51:58;23.70;55.90
431;DHT22;202;48.764;9.172;2023-06-22T05:54:25;23.80;57.70
431;DHT22;202;48.764;9.172;2023-06-22T05:56:51;23.80;56.10
431;DHT22;202;48.764;9.172;2023-06-22T05:59:18;23.70;55.90
431;DHT22;202;48.764;9.172;2023-06-22T06:01:47;23.70;58.40
431;DHT22;202;48.764;9.172;2023-06-22T06:04:16;23.60;55.80
431;DHT22;202;48.764;9.172;2023-06-22T06:06:43;23.50;57.40
431;DHT22;202;48.764;9.172;2023-06-22T06:09:10;23.60;59.10
431;DHT22;202;48.764;9.172;2023-06-22T06:11:37;23.60;58.30
431;DHT22;202;48.764;9.172;2023-06-22T06:14:04;23.70;57.80
431;DHT22;202;48.764;9.172;2023-06-22T06:16:30;23.80;56.10
431;DHT22;202;48.764;9.172;2023-06-22T06:18:58;24.00;56.20
431;DHT22;202;48.764;9.172;2023-06-22T06:21:25;24.00;54.90
431;DHT22;202;48.764;9.172;2023-06-22T06:23:52;24.10;55.90
431;DHT22;202;48.764;9.172;2023-06-22T06:26:19;24.20;54.10
431;DHT22;202;48.764;9.172;2023-06-22T06:28:56;24.30;53.80
431;DHT22;202;48.764;9.172;2023-06-22T06:31:23;24.40;52.30
431;DHT22;202;48.764;9.172;2023-06-22T06:33:49;24.40;52.40
431;DHT22;202;48.764;9.172;2023-06-22T06:36:18;24.40;51.80
431;DHT22;202;48.764;9.172;2023-06-22T06:38:44;24.60;52.80
431;DHT22;202;48.764;9.172;2023-06-22T06:41:12;25.00;51.50
431;DHT22;202;48.764;9.172;2023-06-22T07:02:53;30.40;30.00
431;DHT22;202;48.764;9.172;2023-06-22T07:05:20;29.90;30.60
431;DHT22;202;48.764;9.172;2023-06-22T07:07:47;29.90;31.50
431;DHT22;202;48.764;9.172;2023-06-22T07:10:14;30.40;30.80
431;DHT22;202;48.764;9.172;2023-06-22T07:12:44;31.20;29.20
431;DHT22;202;48.764;9.172;2023-06-22T07:15:11;31.60;28.00
431;DHT22;202;48.764;9.172;2023-06-22T07:17:39;32.20;26.70
431;DHT22;202;48.764;9.172;2023-06-22T07:20:14;32.30;26.20
431;DHT22;202;48.764;9.172;2023-06-22T07:22:45;32.60;25.80
431;DHT22;202;48.764;9.172;2023-06-22T07:25:17;33.10;24.80
431;DHT22;202;48.764;9.172;2023-06-22T07:27:46;33.40;23.20
431;DHT22;202;48.764;9.172;2023-06-22T07:30:20;33.30;23.60
431;DHT22;202;48.764;9.172;2023-06-22T07:32:47;33.50;23.30
431;DHT22;202;48.764;9.172;2023-06-22T07:35:16;33.90;23.20
431;DHT22;202;48.764;9.172;2023-06-22T07:37:45;34.10;22.90
431;DHT22;202;48.764;9.172;2023-06-22T07:40:13;34.90;21.90
431;DHT22;202;48.764;9.172;2023-06-22T07:42:41;34.80;20.70
431;DHT22;202;48.764;9.172;2023-06-22T07:45:08;34.90;21.10
431;DHT22;202;48.764;9.172;2023-06-22T07:47:44;34.90;20.60
431;DHT22;202;48.764;9.172;2023-06-22T07:50:18;34.70;21.20
431;DHT22;202;48.764;9.172;2023-06-22T07:56:24;34.20;22.10
431;DHT22;202;48.764;9.172;2023-06-22T08:05:30;36.20;19.30
431;DHT22;202;48.764;9.172;2023-06-22T08:08:32;35.70;18.80
431;DHT22;202;48.764;9.172;2023-06-22T08:14:21;35.50;20.20
431;DHT22;202;48.764;9.172;2023-06-22T08:16:48;35.60;19.00
431;DHT22;202;48.764;9.172;2023-06-22T08:19:15;35.80;19.20
431;DHT22;202;48.764;9.172;2023-06-22T08:21:43;35.60;18.70
431;DHT22;202;48.764;9.172;2023-06-22T08:24:13;34.90;19.40
431;DHT22;202;48.764;9.172;2023-06-22T08:26:40;33.90;20.80
431;DHT22;202;48.764;9.172;2023-06-22T08:29:07;32.90;22.60
431;DHT22;202;48.764;9.172;2023-06-22T08:31:51;32.10;24.10
431;DHT22;202;48.764;9.172;2023-06-22T08:41:36;30.80;26.90
431;DHT22;202;48.764;9.172;2023-06-22T08:44:03;30.90;27.50
431;DHT22;202;48.764;9.172;2023-06-22T08:46:30;30.90;26.40
431;DHT22;202;48.764;9.172;2023-06-22T08:49:01;31.10;26.10
431;DHT22;202;48.764;9.172;2023-06-22T08:51:28;31.70;25.00
431;DHT22;202;48.764;9.172;2023-06-22T08:53:55;32.00;24.70
431;DHT22;202;48.764;9.172;2023-06-22T08:56:22;31.90;24.40
431;DHT22;202;48.764;9.172;2023-06-22T08:58:50;32.40;23.60
431;DHT22;202;48.764;9.172;2023-06-22T09:01:17;32.60;22.80
431;DHT22;202;48.764;9.172;2023-06-22T09:03:44;32.40;22.70
431;DHT22;202;48.764;9.172;2023-06-22T09:06:19;32.20;23.30
431;DHT22;202;48.764;9.172;2023-06-22T09:08:46;32.20;23.30
431;DHT22;202;48.764;9.172;2023-06-22T09:11:14;32.10;24.30
431;DHT22;202;48.764;9.172;2023-06-22T09:13:41;31.80;24.20
431;DHT22;202;48.764;9.172;2023-06-22T09:16:11;31.70;24.20
431;DHT22;202;48.764;9.172;2023-06-22T09:18:38;31.30;24.90
431;DHT22;202;48.764;9.172;2023-06-22T09:21:05;31.30;25.30
431;DHT22;202;48.764;9.172;2023-06-22T09:27:27;31.80;24.90
431;DHT22;202;48.764;9.172;2023-06-22T09:30:09;32.10;24.40
431;DHT22;202;48.764;9.172;2023-06-22T09:32:42;32.30;24.20
431;DHT22;202;48.764;9.172;2023-06-22T09:35:12;32.50;24.20
431;DHT22;202;48.764;9.172;2023-06-22T09:38:03;32.60;23.10
431;DHT22;202;48.764;9.172;2023-06-22T09:40:30;32.60;22.80
431;DHT22;202;48.764;9.172;2023-06-22T09:43:05;32.60;22.80
431;DHT22;202;48.764;9.172;2023-06-22T09:45:32;32.40;23.20
431;DHT22;202;48.764;9.172;2023-06-22T09:48:04;32.50;22.80
431;DHT22;202;48.764;9.172;2023-06-22T09:50:31;32.70;24.00
431;DHT22;202;48.764;9.172;2023-06-22T09:53:01;32.90;23.00
431;DHT22;202;48.764;9.172;2023-06-22T09:55:37;32.80;23.00
431;DHT22;202;48.764;9.172;2023-06-22T09:58:04;32.80;23.00
431;DHT22;202;48.764;9.172;2023-06-22T10:00:31;32.60;22.80
431;DHT22;202;48.764;9.172;2023-06-22T10:02:58;32.30;23.10
431;DHT22;202;48.764;9.172;2023-06-22T10:05:29;32.10;23.40
431;DHT22;202;48.764;9.172;2023-06-22T10:07:56;32.10;23.70
431;DHT22;202;48.764;9.172;2023-06-22T10:10:23;31.90;23.80
431;DHT22;202;48.764;9.172;2023-06-22T10:12:55;31.70;24.10
431;DHT22;202;48.764;9.172;2023-06-22T10:15:23;31.70;24.10
431;DHT22;202;48.764;9.172;2023-06-22T10:17:49;31.50;24.20
431;DHT22;202;48.764;9.172;2023-06-22T10:20:16;31.40;25.60
431;DHT22;202;48.764;9.172;2023-06-22T10:22:49;31.50;25.30
431;DHT22;202;48.764;9.172;2023-06-22T10:25:20;31.70;25.10
431;DHT22;202;48.764;9.172;2023-06-22T10:27:48;31.80;24.80
431;DHT22;202;48.764;9.172;2023-06-22T10:30:15;31.80;24.40
431;DHT22;202;48.764;9.172;2023-06-22T10:32:44;31.60;25.00
431;DHT22;202;48.764;9.172;2023-06-22T10:35:11;31.60;24.60
431;DHT22;202;48.764;9.172;2023-06-22T10:37:42;31.80;24.20
431;DHT22;202;48.764;9.172;2023-06-22T10:40:12;32.00;24.40
431;DHT22;202;48.764;9.172;2023-06-22T10:42:38;32.20;23.30
431;DHT22;202;48.764;9.172;2023-06-22T10:45:07;32.30;24.10
431;DHT22;202;48.764;9.172;2023-06-22T10:47:34;32.70;22.90
431;DHT22;202;48.764;9.172;2023-06-22T10:50:01;32.70;22.40
431;DHT22;202;48.764;9.172;2023-06-22T10:52:28;32.60;22.60
431;DHT22;202;48.764;9.172;2023-06-22T10:54:55;32.40;22.70
431;DHT22;202;48.764;9.172;2023-06-22T10:57:24;32.50;23.40
431;DHT22;202;48.764;9.172;2023-06-22T10:59:50;32.50;22.80
431;DHT22;202;48.764;9.172;2023-06-22T11:02:17;32.30;23.20
431;DHT22;202;48.764;9.172;2023-06-22T11:04:44;32.10;23.80
431;DHT22;202;48.764;9.172;2023-06-22T11:07:13;31.90;24.00
431;DHT22;202;48.764;9.172;2023-06-22T11:09:40;32.00;24.30
431;DHT22;202;48.764;9.172;2023-06-22T11:12:07;32.10;24.10
431;DHT22;202;48.764;9.172;2023-06-22T11:14:35;32.00;24.20
431;DHT22;202;48.764;9.172;2023-06-22T11:17:02;31.60;24.70
431;DHT22;202;48.764;9.172;2023-06-22T11:19:34;31.60;25.00
431;DHT22;202;48.764;9.172;2023-06-22T11:22:02;31.70;25.50
431;DHT22;202;48.764;9.172;2023-06-22T11:24:35;31.40;25.60
431;DHT22;202;48.764;9.172;2023-06-22T11:27:02;31.40;26.30
431;DHT22;202;48.764;9.172;2023-06-22T11:29:29;31.50;26.70
431;DHT22;202;48.764;9.172;2023-06-22T11:31:58;31.30;26.70
431;DHT22;202;48.764;9.172;2023-06-22T11:34:25;31.40;25.90
431;DHT22;202;48.764;9.172;2023-06-22T11:36:53;31.30;25.00
431;DHT22;202;48.764;9.172;2023-06-22T11:39:20;31.40;24.90
431;DHT22;202;48.764;9.172;2023-06-22T11:41:47;31.60;24.50
431;DHT22;202;48.764;9.172;2023-06-22T11:44:15;31.60;24.10
431;DHT22;202;48.764;9.172;2023-06-22T11:46:42;31.80;24.00
431;DHT22;202;48.764;9.172;2023-06-22T11:49:10;31.90;22.80
431;DHT22;202;48.764;9.172;2023-06-22T11:51:37;31.70;24.10
431;DHT22;202;48.764;9.172;2023-06-22T11:57:28;31.70;25.10
431;DHT22;202;48.764;9.172;2023-06-22T12:00:01;31.80;24.90
431;DHT22;202;48.764;9.172;2023-06-22T12:02:36;31.70;24.30
431;DHT22;202;48.764;9.172;2023-06-22T12:05:14;31.80;23.60
431;DHT22;202;48.764;9.172;2023-06-22T12:14:49;31.50;26.40
431;DHT22;202;48.764;9.172;2023-06-22T12:17:32;31.40;26.80
431;DHT22;202;48.764;9.172;2023-06-22T13:01:51;31.50;26.70
431;DHT22;202;48.764;9.172;2023-06-22T13:06:11;31.50;26.70
431;DHT22;202;48.764;9.172;2023-06-22T13:08:03;31.40;26.40
431;DHT22;202;48.764;9.172;2023-06-22T13:52:02;31.70;26.00
431;DHT22;202;48.764;9.172;2023-06-22T13:59:47;31.80;26.20
431;DHT22;202;48.764;9.172;2023-06-22T14:08:51;31.80;26.90
431;DHT22;202;48.764;9.172;2023-06-22T14:11:18;31.90;26.10
431;DHT22;202;48.764;9.172;2023-06-22T14:13:45;31.90;25.60
431;DHT22;202;48.764;9.172;2023-06-22T14:16:22;32.00;25.40
431;DHT22;202;48.764;9.172;2023-06-22T14:21:46;32.10;25.20
431;DHT22;202;48.764;9.172;2023-06-22T14:24:21;32.10;24.80
431;DHT22;202;48.764;9.172;2023-06-22T14:26:48;32.20;24.20
431;DHT22;202;48.764;9.172;2023-06-22T14:29:28;32.20;22.60
431;DHT22;202;48.764;9.172;2023-06-22T14:32:28;32.20;22.60
431;DHT22;202;48.764;9.172;2023-06-22T14:35:10;32.10;22.60
431;DHT22;202;48.764;9.172;2023-06-22T14:37:37;32.10;22.20
431;DHT22;202;48.764;9.172;2023-06-22T14:40:06;32.10;21.70
431;DHT22;202;48.764;9.172;2023-06-22T14:42:33;32.10;20.60
431;DHT22;202;48.764;9.172;2023-06-22T14:45:00;32.20;20.70
431;DHT22;202;48.764;9.172;2023-06-22T14:47:27;32.30;19.80
431;DHT22;202;48.764;9.172;2023-06-22T14:49:54;32.30;19.60
431;DHT22;202;48.764;9.172;2023-06-22T14:52:30;32.30;19.50
431;DHT22;202;48.764;9.172;2023-06-22T14:55:12;32.50;20.30
431;DHT22;202;48.764;9.172;2023-06-22T14:57:39;32.50;18.30
431;DHT22;202;48.764;9.172;2023-06-22T15:00:07;32.50;17.60
431;DHT22;202;48.764;9.172;2023-06-22T15:02:38;32.50;17.20
431;DHT22;202;48.764;9.172;2023-06-22T15:05:05;32.60;16.60
431;DHT22;202;48.764;9.172;2023-06-22T15:07:32;32.50;15.90
431;DHT22;202;48.764;9.172;2023-06-22T15:09:58;32.50;14.40
431;DHT22;202;48.764;9.172;2023-06-22T15:12:27;32.50;14.10
431;DHT22;202;48.764;9.172;2023-06-22T15:14:53;32.40;14.00
431;DHT22;202;48.764;9.172;2023-06-22T15:17:20;32.40;14.00
431;DHT22;202;48.764;9.172;2023-06-22T15:19:47;32.40;14.00
431;DHT22;202;48.764;9.172;2023-06-22T15:22:14;32.40;14.00
431;DHT22;202;48.764;9.172;2023-06-22T15:24:43;32.50;14.10
431;DHT22;202;48.764;9.172;2023-06-22T15:27:11;32.50;14.50
431;DHT22;202;48.764;9.172;2023-06-22T15:29:40;32.50;14.10
431;DHT22;202;48.764;9.172;2023-06-22T15:32:07;32.50;13.80
431;DHT22;202;48.764;9.172;2023-06-22T15:34:34;32.50;13.80
431;DHT22;202;48.764;9.172;2023-06-22T15:37:01;32.50;13.20
431;DHT22;202;48.764;9.172;2023-06-22T15:39:28;32.50;13.10
431;DHT22;202;48.764;9.172;2023-06-22T15:41:55;32.50;13.80
431;DHT22;202;48.764;9.172;2023-06-22T15:44:22;32.50;13.40
431;DHT22;202;48.764;9.172;2023-06-22T15:46:51;32.50;13.60
431;DHT22;202;48.764;9.172;2023-06-22T15:49:17;32.50;13.20
431;DHT22;202;48.764;9.172;2023-06-22T15:51:45;32.50;12.80
431;DHT22;202;48.764;9.172;2023-06-22T15:54:11;32.50;13.40
431;DHT22;202;48.764;9.172;2023-06-22T15:56:38;32.50;13.30
431;DHT22;202;48.764;9.172;2023-06-22T15:59:05;32.50;13.20
431;DHT22;202;48.764;9.172;2023-06-22T16:01:32;32.40;14.00
431;DHT22;202;48.764;9.172;2023-06-22T16:07:36;32.40;14.00
431;DHT22;202;48.764;9.172;2023-06-22T16:10:10;32.30;13.90
431;DHT22;202;48.764;9.172;2023-06-22T16:12:46;32.20;13.90
431;DHT22;202;48.764;9.172;2023-06-22T16:16:08;32.10;13.80
431;DHT22;202;48.764;9.172;2023-06-22T16:18:27;32.00;13.80
431;DHT22;202;48.764;9.172;2023-06-22T16:20:54;31.90;13.90
431;DHT22;202;48.764;9.172;2023-06-22T16:23:31;31.80;14.30
431;DHT22;202;48.764;9.172;2023-06-22T16:29:10;31.70;14.30
431;DHT22;202;48.764;9.172;2023-06-22T16:32:14;31.60;14.60
431;DHT22;202;48.764;9.172;2023-06-22T16:34:52;31.40;15.10
431;DHT22;202;48.764;9.172;2023-06-22T16:37:34;31.30;15.60
431;DHT22;202;48.764;9.172;2023-06-22T16:43:18;31.10;16.20
431;DHT22;202;48.764;9.172;2023-06-22T16:46:10;31.10;15.90
431;DHT22;202;48.764;9.172;2023-06-22T16:49:00;31.00;16.10
431;DHT22;202;48.764;9.172;2023-06-22T16:51:49;31.00;16.30
431;DHT22;202;48.764;9.172;2023-06-22T16:54:39;31.00;16.20
431;DHT22;202;48.764;9.172;2023-06-22T16:58:01;31.10;16.80
431;DHT22;202;48.764;9.172;2023-06-22T17:00:53;31.10;16.80
431;DHT22;202;48.764;9.172;2023-06-22T17:03:53;31.10;16.70
431;DHT22;202;48.764;9.172;2023-06-22T17:06:42;31.00;16.60
431;DHT22;202;48.764;9.172;2023-06-22T17:09:25;31.00;16.60
431;DHT22;202;48.764;9.172;2023-06-22T17:12:45;30.80;17.10
431;DHT22;202;48.764;9.172;2023-06-22T17:15:19;30.80;17.20
431;DHT22;202;48.764;9.172;2023-06-22T17:24:55;30.50;17.60
431;DHT22;202;48.764;9.172;2023-06-22T17:28:03;30.40;18.00
431;DHT22;202;48.764;9.172;2023-06-22T17:31:08;30.40;18.30
431;DHT22;202;48.764;9.172;2023-06-22T17:37:27;30.20;18.10
431;DHT22;202;48.764;9.172;2023-06-22T17:40:23;30.10;17.60
431;DHT22;202;48.764;9.172;2023-06-22T17:43:19;30.00;17.60
431;DHT22;202;48.764;9.172;2023-06-22T17:45:59;29.80;17.50
431;DHT22;202;48.764;9.172;2023-06-22T17:48:38;29.70;17.90
431;DHT22;202;48.764;9.172;2023-06-22T17:51:24;29.50;17.90
431;DHT22;202;48.764;9.172;2023-06-22T17:54:12;29.30;18.20
431;DHT22;202;48.764;9.172;2023-06-22T18:06:30;29.00;20.00
431;DHT22;202;48.764;9.172;2023-06-22T18:09:42;28.80;20.20
431;DHT22;202;48.764;9.172;2023-06-22T18:12:49;28.70;20.30
431;DHT22;202;48.764;9.172;2023-06-22T18:18:09;28.60;20.40
431;DHT22;202;48.764;9.172;2023-06-22T18:27:54;28.10;21.10
431;DHT22;202;48.764;9.172;2023-06-22T18:31:00;27.90;21.60
431;DHT22;202;48.764;9.172;2023-06-22T18:34:09;27.70;22.10
431;DHT22;202;48.764;9.172;2023-06-22T18:40:54;27.50;22.80
431;DHT22;202;48.764;9.172;2023-06-22T19:28:19;26.20;27.60
431;DHT22;202;48.764;9.172;2023-06-22T22:52:50;23.20;41.00
431;DHT22;202;48.764;9.172;2023-06-22T23:00:34;23.20;41.10
431;DHT22;202;48.764;9.172;2023-06-22T23:15:30;23.00;42.30
431;DHT22;202;48.764;9.172;2023-06-22T23:18:17;22.80;43.00
431;DHT22;202;48.764;9.172;2023-06-22T23:24:12;22.80;43.40
431;DHT22;202;48.764;9.172;2023-06-22T23:26:58;22.90;43.30
431;DHT22;202;48.764;9.172;2023-06-22T23:29:47;22.90;43.40
431;DHT22;202;48.764;9.172;2023-06-22T23:32:54;22.90;43.40
431;DHT22;202;48.764;9.172;2023-06-22T23:35:29;22.90;43.90
431;DHT22;202;48.764;9.172;2023-06-22T23:38:29;22.90;44.40
431;DHT22;202;48.764;9.172;2023-06-22T23:41:33;22.80;45.20
431;DHT22;202;48.764;9.172;2023-06-22T23:44:40;22.80;45.20
431;DHT22;202;48.764;9.172;2023-06-22T23:47:37;22.70;45.10
431;DHT22;202;48.764;9.172;2023-06-22T23:54:09;22.70;46.00
431;DHT22;202;48.764;9.172;2023-06-22T23:56:44;22.70;46.00
431;DHT22;202;48.764;9.172;2023-06-22T23:59:41;22.60;46.20
